createdAt,value
2022-12-18T00:02:13.828Z,-9.07
2022-12-18T00:07:14.585Z,-9.13
2022-12-18T00:12:15.512Z,-9.03
2022-12-18T00:17:16.273Z,-8.94
2022-12-18T00:22:17.012Z,-8.80
2022-12-18T00:27:17.788Z,-8.77
2022-12-18T00:32:18.898Z,-8.86
2022-12-18T00:37:20.431Z,-8.81
2022-12-18T00:42:43.693Z,-8.76
2022-12-18T00:47:44.481Z,-8.89
2022-12-18T00:52:45.457Z,-9.18
2022-12-18T00:57:46.256Z,-9.29
2022-12-18T01:02:47.289Z,-9.59
2022-12-18T01:07:48.130Z,-9.96
2022-12-18T01:12:49.879Z,-10.06
2022-12-18T01:17:53.336Z,-10.15
2022-12-18T01:22:54.667Z,-10.11
2022-12-18T01:27:55.451Z,-10.11
2022-12-18T01:32:56.178Z,-10.14
2022-12-18T01:37:56.974Z,-9.87
2022-12-18T01:42:57.874Z,-9.69
2022-12-18T01:48:03.090Z,-9.55
2022-12-18T01:53:11.491Z,-9.63
2022-12-18T01:58:12.877Z,-9.51
2022-12-18T02:03:13.837Z,-9.49
2022-12-18T02:08:34.225Z,-9.42
2022-12-18T02:13:51.290Z,-9.29
2022-12-18T02:18:58.227Z,-9.16
2022-12-18T02:26:44.641Z,-9.22
2022-12-18T02:31:57.071Z,-9.29
2022-12-18T02:37:01.049Z,-9.20
2022-12-18T02:42:07.908Z,-9.10
2022-12-18T02:47:12.820Z,-9.08
2022-12-18T02:55:46.280Z,-9.11
2022-12-18T03:01:02.009Z,-9.19
2022-12-18T03:06:18.913Z,-9.38
2022-12-18T03:12:23.101Z,-9.18
2022-12-18T03:17:28.275Z,-9.21
2022-12-18T03:22:33.041Z,-9.59
2022-12-18T03:27:41.057Z,-9.46
2022-12-18T03:34:21.538Z,-9.38
2022-12-18T03:39:25.247Z,-9.08
2022-12-18T03:44:49.223Z,-8.98
2022-12-18T03:50:17.283Z,-9.04
2022-12-18T03:55:23.077Z,-9.11
2022-12-18T04:00:30.636Z,-8.96
2022-12-18T04:05:39.140Z,-9.03
2022-12-18T04:10:41.541Z,-8.88
2022-12-18T04:15:42.399Z,-8.89
2022-12-18T04:20:45.734Z,-8.89
2022-12-18T04:25:47.681Z,-8.78
2022-12-18T04:30:52.451Z,-8.77
2022-12-18T04:35:54.607Z,-8.76
2022-12-18T04:40:55.467Z,-8.83
2022-12-18T04:46:05.202Z,-8.81
2022-12-18T04:51:07.697Z,-8.82
2022-12-18T04:56:11.107Z,-8.75
2022-12-18T05:01:13.851Z,-8.83
2022-12-18T05:06:14.993Z,-8.78
2022-12-18T05:11:16.369Z,-8.64
2022-12-18T05:16:17.346Z,-8.51
2022-12-18T05:21:18.363Z,-8.56
2022-12-18T05:26:19.648Z,-8.58
2022-12-18T05:31:20.595Z,-8.62
2022-12-18T05:36:21.553Z,-8.67
2022-12-18T05:41:22.765Z,-8.65
2022-12-18T05:46:24.944Z,-8.64
2022-12-18T05:51:25.924Z,-8.68
2022-12-18T05:56:26.702Z,-8.46
2022-12-18T06:01:27.781Z,-8.66
2022-12-18T06:06:29.176Z,-8.61
2022-12-18T06:11:29.996Z,-8.66
2022-12-18T06:16:31.592Z,-8.74
2022-12-18T06:21:33.826Z,-8.72
2022-12-18T06:26:37.115Z,-8.59
2022-12-18T06:31:38.043Z,-8.62
2022-12-18T06:36:38.976Z,-8.44
2022-12-18T06:41:39.765Z,-8.41
2022-12-18T06:46:41.503Z,-8.51
2022-12-18T06:51:43.094Z,-8.39
2022-12-18T06:56:46.081Z,-8.33
2022-12-18T07:01:47.123Z,-8.50
2022-12-18T07:06:48.183Z,-8.57
2022-12-18T07:11:48.924Z,-8.61
2022-12-18T07:16:49.758Z,-8.56
2022-12-18T07:21:51.726Z,-8.49
2022-12-18T07:26:52.980Z,-8.58
2022-12-18T07:31:53.828Z,-8.54
2022-12-18T07:36:54.744Z,-8.50
2022-12-18T07:42:15.276Z,-8.41
2022-12-18T07:47:16.047Z,-8.35
2022-12-18T07:52:20.260Z,-8.40
2022-12-18T07:57:49.094Z,-8.49
2022-12-18T08:02:51.235Z,-8.44
2022-12-18T08:07:52.463Z,-8.43
2022-12-18T08:12:53.245Z,-8.35
2022-12-18T08:17:57.060Z,-8.46
2022-12-18T08:22:58.372Z,-8.36
2022-12-18T08:27:59.464Z,-8.50
2022-12-18T08:33:00.186Z,-8.47
2022-12-18T08:38:00.986Z,-8.37
2022-12-18T08:43:20.464Z,-8.14
2022-12-18T08:48:22.400Z,-7.84
2022-12-18T08:53:24.084Z,-7.43
2022-12-18T08:58:24.827Z,-7.03
2022-12-18T09:03:26.008Z,-6.64
2022-12-18T09:08:27.663Z,-6.59
2022-12-18T09:13:28.867Z,-6.43
2022-12-18T09:18:29.754Z,-6.11
2022-12-18T09:23:30.649Z,-5.77
2022-12-18T09:28:31.387Z,-5.57
2022-12-18T09:33:32.423Z,-5.62
2022-12-18T09:38:35.126Z,-5.23
2022-12-18T09:45:29.960Z,-5.18
2022-12-18T09:50:36.852Z,-5.32
2022-12-18T09:55:42.125Z,-5.31
2022-12-18T10:00:44.778Z,-5.08
2022-12-18T10:09:57.599Z,-5.10
2022-12-18T10:15:17.578Z,-5.30
2022-12-18T10:20:46.981Z,-5.26
2022-12-18T10:26:05.139Z,-5.37
2022-12-18T10:31:08.069Z,-5.12
2022-12-18T10:36:09.262Z,-5.63
2022-12-18T10:41:27.433Z,-6.02
2022-12-18T10:46:28.733Z,-6.33
2022-12-18T10:51:37.502Z,-6.42
2022-12-18T10:56:39.651Z,-6.61
2022-12-18T11:02:00.384Z,-6.63
2022-12-18T11:07:04.173Z,-6.89
2022-12-18T11:12:18.812Z,-6.99
2022-12-18T11:17:32.344Z,-7.18
2022-12-18T11:22:38.516Z,-7.20
2022-12-18T11:27:40.644Z,-7.53
2022-12-18T11:32:47.272Z,-7.51
2022-12-18T11:37:54.780Z,-7.79
2022-12-18T11:43:07.031Z,-7.85
2022-12-18T11:48:21.766Z,-8.07
2022-12-18T11:53:24.319Z,-8.20
2022-12-18T11:58:46.186Z,-8.11
2022-12-18T12:05:42.304Z,-8.12
2022-12-18T12:11:07.984Z,-8.02
2022-12-18T12:16:41.801Z,-7.76
2022-12-18T12:21:51.950Z,-7.97
2022-12-18T12:27:05.913Z,-7.92
2022-12-18T12:36:26.859Z,-7.98
2022-12-18T12:42:54.438Z,-7.85
2022-12-18T12:47:58.089Z,-7.81
2022-12-18T12:53:01.681Z,-7.90
2022-12-18T12:58:32.428Z,-8.04
2022-12-18T13:04:02.790Z,-7.88
2022-12-18T13:09:04.358Z,-7.83
2022-12-18T13:14:05.184Z,-7.88
2022-12-18T13:19:26.711Z,-7.40
2022-12-18T13:24:31.250Z,-7.46
2022-12-18T13:29:45.034Z,-7.65
2022-12-18T13:34:46.143Z,-7.95
2022-12-18T13:39:47.042Z,-7.78
2022-12-18T13:44:48.432Z,-7.90
2022-12-18T13:49:49.351Z,-7.79
2022-12-18T13:54:55.922Z,-7.74
2022-12-18T13:59:58.534Z,-7.79
2022-12-18T14:04:59.624Z,-7.79
2022-12-18T14:15:41.505Z,-7.92
2022-12-18T14:20:52.565Z,-7.81
2022-12-18T14:25:54.350Z,-7.75
2022-12-18T14:30:56.728Z,-7.82
2022-12-18T14:36:04.715Z,-7.84
2022-12-18T14:41:16.889Z,-7.82
2022-12-18T14:46:38.594Z,-7.82
2022-12-18T14:51:39.807Z,-7.81
2022-12-18T14:56:47.535Z,-7.68
2022-12-18T15:02:03.639Z,-7.89
2022-12-18T15:07:20.214Z,-7.80
2022-12-18T15:12:33.280Z,-7.80
2022-12-18T15:17:34.098Z,-7.81
2022-12-18T15:22:36.890Z,-7.73
2022-12-18T15:27:38.258Z,-7.63
2022-12-18T15:32:43.393Z,-7.70
2022-12-18T15:37:44.936Z,-7.71
2022-12-18T15:43:05.091Z,-7.78
2022-12-18T15:48:23.092Z,-7.69
2022-12-18T15:53:28.493Z,-7.72
2022-12-18T15:58:29.393Z,-7.55
2022-12-18T16:03:30.447Z,-7.62
2022-12-18T16:08:31.623Z,-7.68
2022-12-18T16:13:32.401Z,-7.61
2022-12-18T16:18:33.629Z,-7.59
2022-12-18T16:23:34.371Z,-7.54
2022-12-18T16:28:35.100Z,-7.51
2022-12-18T16:33:35.871Z,-7.46
2022-12-18T16:38:36.759Z,-7.36
2022-12-18T16:43:37.496Z,-7.29
2022-12-18T16:48:38.298Z,-7.18
2022-12-18T16:53:39.655Z,-7.15
2022-12-18T16:58:40.770Z,-7.06
2022-12-18T17:03:43.834Z,-7.11
2022-12-18T17:08:46.005Z,-6.90
2022-12-18T17:13:46.733Z,-7.08
2022-12-18T17:18:48.022Z,-7.08
2022-12-18T17:23:48.957Z,-7.02
2022-12-18T17:28:50.157Z,-6.96
2022-12-18T17:33:51.878Z,-7.00
2022-12-18T17:38:55.680Z,-6.86
2022-12-18T17:44:03.545Z,-6.84
2022-12-18T17:49:04.597Z,-6.74
2022-12-18T17:54:05.752Z,-6.72
2022-12-18T17:59:06.560Z,-6.66
2022-12-18T18:04:07.898Z,-6.68
2022-12-18T18:09:16.263Z,-6.54
2022-12-18T18:14:19.740Z,-6.48
2022-12-18T18:19:23.152Z,-6.44
2022-12-18T18:24:25.013Z,-6.48
2022-12-18T18:29:29.496Z,-6.49
2022-12-18T18:34:31.811Z,-6.50
2022-12-18T18:39:33.979Z,-6.45
2022-12-18T18:44:35.072Z,-6.39
2022-12-18T18:49:35.903Z,-6.40
2022-12-18T18:54:36.678Z,-6.28
2022-12-18T18:59:38.203Z,-6.22
2022-12-18T19:04:45.039Z,-6.24
2022-12-18T19:09:51.202Z,-6.11
2022-12-18T19:14:53.932Z,-6.18
2022-12-18T19:19:54.933Z,-6.02
2022-12-18T19:24:55.815Z,-5.94
2022-12-18T19:29:56.666Z,-5.95
2022-12-18T19:34:58.286Z,-6.06
2022-12-18T19:40:00.348Z,-6.11
2022-12-18T19:45:03.901Z,-6.22
2022-12-18T19:50:05.738Z,-6.12
2022-12-18T19:55:07.595Z,-6.17
2022-12-18T20:00:14.049Z,-6.13
2022-12-18T20:05:24.334Z,-6.12
2022-12-18T20:10:25.312Z,-6.02
2022-12-18T20:15:26.158Z,-5.95
2022-12-18T20:20:26.941Z,-5.89
2022-12-18T20:25:27.926Z,-5.70
2022-12-18T20:30:28.822Z,-5.82
2022-12-18T20:35:31.469Z,-5.73
2022-12-18T20:40:33.737Z,-5.61
2022-12-18T20:45:34.641Z,-5.48
2022-12-18T20:50:36.612Z,-5.54
2022-12-18T20:55:41.761Z,-5.50
2022-12-18T21:00:42.525Z,-5.43
2022-12-18T21:05:43.393Z,-5.30
2022-12-18T21:10:44.389Z,-5.37
2022-12-18T21:15:45.259Z,-5.35
2022-12-18T21:20:46.297Z,-5.29
2022-12-18T21:25:47.072Z,-5.37
2022-12-18T21:30:51.597Z,-5.34
2022-12-18T21:35:52.400Z,-5.30
2022-12-18T21:40:53.430Z,-5.33
2022-12-18T21:45:54.247Z,-5.44
2022-12-18T21:50:56.514Z,-5.44
2022-12-18T21:55:58.180Z,-5.30
2022-12-18T22:00:59.033Z,-5.42
2022-12-18T22:06:09.403Z,-5.42
2022-12-18T22:11:11.782Z,-5.46
2022-12-18T22:16:12.801Z,-5.44
2022-12-18T22:21:29.716Z,-5.57
2022-12-18T22:26:39.458Z,-5.50
2022-12-18T22:31:41.535Z,-5.45
2022-12-18T22:36:45.979Z,-5.28
2022-12-18T22:41:47.345Z,-5.16
2022-12-18T22:46:56.162Z,-5.42
2022-12-18T22:52:08.712Z,-5.43
2022-12-18T22:57:09.541Z,-5.36
2022-12-18T23:02:10.514Z,-5.35
2022-12-18T23:07:11.419Z,-5.40
2022-12-18T23:12:16.044Z,-5.43
2022-12-18T23:17:16.997Z,-5.42
2022-12-18T23:22:18.202Z,-5.41
2022-12-18T23:27:18.948Z,-5.28
2022-12-18T23:32:19.796Z,-5.25
2022-12-18T23:37:49.736Z,-5.25
2022-12-18T23:42:59.446Z,-5.12
2022-12-18T23:48:00.215Z,-5.07
2022-12-18T23:53:05.474Z,-5.13
2022-12-18T23:58:14.893Z,-5.11
